sensor_id;sensor_type;location;lat;lon;timestamp;P1;durP1;ratioP1;P2;durP2;ratioP2
21192;SDS011;10754;51.106;7.164;2023-05-03T00:00:56;5.73;;;3.10;;
21192;SDS011;10754;51.106;7.164;2023-05-03T00:03:25;5.07;;;2.67;;
21192;SDS011;10754;51.106;7.164;2023-05-03T00:05:51;3.50;;;2.80;;
21192;SDS011;10754;51.106;7.164;2023-05-03T00:08:17;3.40;;;2.80;;
21192;SDS011;10754;51.106;7.164;2023-05-03T00:10:42;4.47;;;3.00;;
21192;SDS011;10754;51.106;7.164;2023-05-03T00:13:08;4.13;;;2.80;;
21192;SDS011;10754;51.106;7.164;2023-05-03T00:15:34;6.00;;;2.45;;
21192;SDS011;10754;51.106;7.164;2023-05-03T00:17:59;3.23;;;2.53;;
21192;SDS011;10754;51.106;7.164;2023-05-03T00:20:25;5.23;;;2.93;;
21192;SDS011;10754;51.106;7.164;2023-05-03T00:22:51;4.77;;;2.63;;
21192;SDS011;10754;51.106;7.164;2023-05-03T00:25:16;3.50;;;2.73;;
21192;SDS011;10754;51.106;7.164;2023-05-03T00:27:42;5.20;;;2.90;;
21192;SDS011;10754;51.106;7.164;2023-05-03T00:30:08;4.53;;;2.73;;
21192;SDS011;10754;51.106;7.164;2023-05-03T00:32:34;3.00;;;2.70;;
21192;SDS011;10754;51.106;7.164;2023-05-03T00:35:00;3.73;;;3.10;;
21192;SDS011;10754;51.106;7.164;2023-05-03T00:37:26;4.53;;;2.70;;
21192;SDS011;10754;51.106;7.164;2023-05-03T00:39:51;3.53;;;2.40;;
21192;SDS011;10754;51.106;7.164;2023-05-03T00:42:17;4.10;;;3.28;;
21192;SDS011;10754;51.106;7.164;2023-05-03T00:44:43;3.97;;;2.77;;
21192;SDS011;10754;51.106;7.164;2023-05-03T00:47:09;5.87;;;2.60;;
21192;SDS011;10754;51.106;7.164;2023-05-03T00:49:36;4.93;;;2.53;;
21192;SDS011;10754;51.106;7.164;2023-05-03T00:52:02;4.87;;;2.87;;
21192;SDS011;10754;51.106;7.164;2023-05-03T00:54:28;3.17;;;2.47;;
21192;SDS011;10754;51.106;7.164;2023-05-03T00:56:54;4.72;;;2.85;;
21192;SDS011;10754;51.106;7.164;2023-05-03T00:59:20;3.87;;;3.03;;
21192;SDS011;10754;51.106;7.164;2023-05-03T01:01:47;4.50;;;2.63;;
21192;SDS011;10754;51.106;7.164;2023-05-03T01:04:13;3.73;;;2.73;;
21192;SDS011;10754;51.106;7.164;2023-05-03T01:06:43;4.13;;;3.20;;
21192;SDS011;10754;51.106;7.164;2023-05-03T01:09:30;4.90;;;2.67;;
21192;SDS011;10754;51.106;7.164;2023-05-03T01:12:15;3.27;;;2.47;;
21192;SDS011;10754;51.106;7.164;2023-05-03T01:15:07;3.83;;;2.40;;
21192;SDS011;10754;51.106;7.164;2023-05-03T01:18:01;3.00;;;2.30;;
21192;SDS011;10754;51.106;7.164;2023-05-03T01:20:32;3.33;;;2.93;;
21192;SDS011;10754;51.106;7.164;2023-05-03T01:25:53;4.82;;;2.90;;
21192;SDS011;10754;51.106;7.164;2023-05-03T01:28:18;3.60;;;2.40;;
21192;SDS011;10754;51.106;7.164;2023-05-03T01:30:44;3.20;;;2.53;;
21192;SDS011;10754;51.106;7.164;2023-05-03T01:36:01;3.75;;;2.20;;
21192;SDS011;10754;51.106;7.164;2023-05-03T01:38:35;3.27;;;2.50;;
21192;SDS011;10754;51.106;7.164;2023-05-03T01:41:02;3.87;;;2.83;;
21192;SDS011;10754;51.106;7.164;2023-05-03T01:43:33;2.90;;;2.60;;
21192;SDS011;10754;51.106;7.164;2023-05-03T01:46:00;4.15;;;2.90;;
21192;SDS011;10754;51.106;7.164;2023-05-03T01:48:25;5.17;;;2.70;;
21192;SDS011;10754;51.106;7.164;2023-05-03T01:50:51;5.70;;;3.70;;
21192;SDS011;10754;51.106;7.164;2023-05-03T01:53:16;4.20;;;2.50;;
21192;SDS011;10754;51.106;7.164;2023-05-03T01:55:42;4.70;;;3.43;;
21192;SDS011;10754;51.106;7.164;2023-05-03T01:58:07;4.57;;;3.00;;
21192;SDS011;10754;51.106;7.164;2023-05-03T02:00:33;4.27;;;2.80;;
21192;SDS011;10754;51.106;7.164;2023-05-03T02:02:58;3.23;;;2.83;;
21192;SDS011;10754;51.106;7.164;2023-05-03T02:05:24;3.57;;;2.73;;
21192;SDS011;10754;51.106;7.164;2023-05-03T02:07:50;3.80;;;2.97;;
21192;SDS011;10754;51.106;7.164;2023-05-03T02:10:15;3.90;;;2.80;;
21192;SDS011;10754;51.106;7.164;2023-05-03T02:12:41;3.80;;;2.90;;
21192;SDS011;10754;51.106;7.164;2023-05-03T02:15:08;4.63;;;2.53;;
21192;SDS011;10754;51.106;7.164;2023-05-03T02:17:34;4.60;;;3.23;;
21192;SDS011;10754;51.106;7.164;2023-05-03T02:19:59;5.43;;;2.80;;
21192;SDS011;10754;51.106;7.164;2023-05-03T02:22:25;4.30;;;3.03;;
21192;SDS011;10754;51.106;7.164;2023-05-03T02:24:50;4.57;;;3.33;;
21192;SDS011;10754;51.106;7.164;2023-05-03T02:27:16;4.73;;;2.90;;
21192;SDS011;10754;51.106;7.164;2023-05-03T02:29:42;3.43;;;2.70;;
21192;SDS011;10754;51.106;7.164;2023-05-03T02:32:07;5.27;;;3.30;;
21192;SDS011;10754;51.106;7.164;2023-05-03T02:34:33;4.00;;;2.83;;
21192;SDS011;10754;51.106;7.164;2023-05-03T02:36:58;4.33;;;3.00;;
21192;SDS011;10754;51.106;7.164;2023-05-03T02:39:24;3.73;;;2.63;;
21192;SDS011;10754;51.106;7.164;2023-05-03T02:41:49;4.17;;;2.87;;
21192;SDS011;10754;51.106;7.164;2023-05-03T02:44:15;3.50;;;2.90;;
21192;SDS011;10754;51.106;7.164;2023-05-03T02:46:40;4.17;;;2.80;;
21192;SDS011;10754;51.106;7.164;2023-05-03T02:49:06;3.60;;;2.77;;
21192;SDS011;10754;51.106;7.164;2023-05-03T02:51:32;3.28;;;2.25;;
21192;SDS011;10754;51.106;7.164;2023-05-03T02:53:58;3.50;;;2.03;;
21192;SDS011;10754;51.106;7.164;2023-05-03T02:56:24;3.30;;;2.60;;
21192;SDS011;10754;51.106;7.164;2023-05-03T02:58:50;4.00;;;2.90;;
21192;SDS011;10754;51.106;7.164;2023-05-03T03:01:16;3.27;;;2.57;;
21192;SDS011;10754;51.106;7.164;2023-05-03T03:03:42;4.70;;;3.00;;
21192;SDS011;10754;51.106;7.164;2023-05-03T03:06:07;3.13;;;2.80;;
21192;SDS011;10754;51.106;7.164;2023-05-03T03:08:34;2.90;;;2.60;;
21192;SDS011;10754;51.106;7.164;2023-05-03T03:11:00;2.63;;;2.43;;
21192;SDS011;10754;51.106;7.164;2023-05-03T03:13:25;3.50;;;2.43;;
21192;SDS011;10754;51.106;7.164;2023-05-03T03:15:51;3.43;;;2.70;;
21192;SDS011;10754;51.106;7.164;2023-05-03T03:18:16;3.87;;;2.63;;
21192;SDS011;10754;51.106;7.164;2023-05-03T03:20:42;3.17;;;2.67;;
21192;SDS011;10754;51.106;7.164;2023-05-03T03:23:07;4.10;;;2.87;;
21192;SDS011;10754;51.106;7.164;2023-05-03T03:25:33;3.07;;;2.27;;
21192;SDS011;10754;51.106;7.164;2023-05-03T03:27:58;3.03;;;2.73;;
21192;SDS011;10754;51.106;7.164;2023-05-03T03:30:24;4.57;;;2.90;;
21192;SDS011;10754;51.106;7.164;2023-05-03T03:32:51;4.17;;;2.50;;
21192;SDS011;10754;51.106;7.164;2023-05-03T03:35:16;4.30;;;2.50;;
21192;SDS011;10754;51.106;7.164;2023-05-03T03:37:43;2.43;;;2.20;;
21192;SDS011;10754;51.106;7.164;2023-05-03T03:40:08;2.43;;;2.23;;
21192;SDS011;10754;51.106;7.164;2023-05-03T03:42:35;5.40;;;2.23;;
21192;SDS011;10754;51.106;7.164;2023-05-03T03:45:01;3.43;;;2.30;;
21192;SDS011;10754;51.106;7.164;2023-05-03T03:47:26;3.00;;;2.53;;
21192;SDS011;10754;51.106;7.164;2023-05-03T03:49:52;5.83;;;2.93;;
21192;SDS011;10754;51.106;7.164;2023-05-03T03:52:17;3.03;;;2.73;;
21192;SDS011;10754;51.106;7.164;2023-05-03T03:54:43;2.60;;;2.40;;
21192;SDS011;10754;51.106;7.164;2023-05-03T03:57:09;3.97;;;2.80;;
21192;SDS011;10754;51.106;7.164;2023-05-03T03:59:34;3.57;;;2.53;;
21192;SDS011;10754;51.106;7.164;2023-05-03T04:02:00;2.97;;;2.20;;
21192;SDS011;10754;51.106;7.164;2023-05-03T04:04:25;2.90;;;2.53;;
21192;SDS011;10754;51.106;7.164;2023-05-03T04:06:51;3.07;;;2.17;;
21192;SDS011;10754;51.106;7.164;2023-05-03T04:09:16;2.73;;;2.23;;
21192;SDS011;10754;51.106;7.164;2023-05-03T04:11:42;3.53;;;2.60;;
21192;SDS011;10754;51.106;7.164;2023-05-03T04:14:07;3.47;;;2.33;;
21192;SDS011;10754;51.106;7.164;2023-05-03T04:16:32;3.80;;;2.60;;
21192;SDS011;10754;51.106;7.164;2023-05-03T04:18:59;3.70;;;2.50;;
21192;SDS011;10754;51.106;7.164;2023-05-03T04:21:25;3.23;;;2.47;;
21192;SDS011;10754;51.106;7.164;2023-05-03T04:23:52;3.03;;;2.70;;
21192;SDS011;10754;51.106;7.164;2023-05-03T04:26:18;4.00;;;2.90;;
21192;SDS011;10754;51.106;7.164;2023-05-03T04:28:46;2.93;;;2.40;;
21192;SDS011;10754;51.106;7.164;2023-05-03T04:31:11;4.93;;;2.20;;
21192;SDS011;10754;51.106;7.164;2023-05-03T04:33:38;2.67;;;2.40;;
21192;SDS011;10754;51.106;7.164;2023-05-03T04:36:04;2.70;;;2.37;;
21192;SDS011;10754;51.106;7.164;2023-05-03T04:38:30;4.70;;;2.93;;
21192;SDS011;10754;51.106;7.164;2023-05-03T04:40:56;3.23;;;2.50;;
21192;SDS011;10754;51.106;7.164;2023-05-03T04:43:22;3.63;;;2.73;;
21192;SDS011;10754;51.106;7.164;2023-05-03T04:45:47;4.40;;;2.83;;
21192;SDS011;10754;51.106;7.164;2023-05-03T04:48:16;3.27;;;2.70;;
21192;SDS011;10754;51.106;7.164;2023-05-03T04:50:42;2.53;;;2.20;;
21192;SDS011;10754;51.106;7.164;2023-05-03T04:53:07;3.37;;;2.37;;
21192;SDS011;10754;51.106;7.164;2023-05-03T04:55:33;2.70;;;2.30;;
21192;SDS011;10754;51.106;7.164;2023-05-03T04:57:59;3.50;;;2.47;;
21192;SDS011;10754;51.106;7.164;2023-05-03T05:00:24;2.80;;;2.20;;
21192;SDS011;10754;51.106;7.164;2023-05-03T05:02:50;4.50;;;2.70;;
21192;SDS011;10754;51.106;7.164;2023-05-03T05:05:15;4.13;;;2.90;;
21192;SDS011;10754;51.106;7.164;2023-05-03T05:07:41;3.87;;;2.77;;
21192;SDS011;10754;51.106;7.164;2023-05-03T05:10:07;3.53;;;2.90;;
21192;SDS011;10754;51.106;7.164;2023-05-03T05:12:33;4.83;;;2.50;;
21192;SDS011;10754;51.106;7.164;2023-05-03T05:14:58;3.10;;;2.30;;
21192;SDS011;10754;51.106;7.164;2023-05-03T05:17:24;3.90;;;2.40;;
21192;SDS011;10754;51.106;7.164;2023-05-03T05:19:50;3.00;;;2.50;;
21192;SDS011;10754;51.106;7.164;2023-05-03T05:22:16;4.03;;;2.30;;
21192;SDS011;10754;51.106;7.164;2023-05-03T05:24:43;3.50;;;2.80;;
21192;SDS011;10754;51.106;7.164;2023-05-03T05:27:09;4.53;;;3.00;;
21192;SDS011;10754;51.106;7.164;2023-05-03T05:29:34;5.13;;;3.20;;
21192;SDS011;10754;51.106;7.164;2023-05-03T05:32:00;5.80;;;5.13;;
21192;SDS011;10754;51.106;7.164;2023-05-03T05:34:27;13.17;;;7.37;;
21192;SDS011;10754;51.106;7.164;2023-05-03T05:36:53;4.83;;;3.67;;
21192;SDS011;10754;51.106;7.164;2023-05-03T05:39:18;4.73;;;3.43;;
21192;SDS011;10754;51.106;7.164;2023-05-03T05:41:45;3.47;;;2.97;;
21192;SDS011;10754;51.106;7.164;2023-05-03T05:44:11;3.60;;;3.30;;
21192;SDS011;10754;51.106;7.164;2023-05-03T05:46:37;7.97;;;6.37;;
21192;SDS011;10754;51.106;7.164;2023-05-03T05:49:02;4.57;;;4.17;;
21192;SDS011;10754;51.106;7.164;2023-05-03T05:51:28;8.40;;;6.67;;
21192;SDS011;10754;51.106;7.164;2023-05-03T05:53:54;4.33;;;3.70;;
21192;SDS011;10754;51.106;7.164;2023-05-03T05:56:20;3.93;;;3.00;;
21192;SDS011;10754;51.106;7.164;2023-05-03T05:58:46;4.80;;;2.93;;
21192;SDS011;10754;51.106;7.164;2023-05-03T06:01:11;4.30;;;2.63;;
21192;SDS011;10754;51.106;7.164;2023-05-03T06:03:37;3.47;;;3.07;;
21192;SDS011;10754;51.106;7.164;2023-05-03T06:06:02;3.97;;;2.70;;
21192;SDS011;10754;51.106;7.164;2023-05-03T06:08:28;4.10;;;3.00;;
21192;SDS011;10754;51.106;7.164;2023-05-03T06:10:53;5.20;;;2.80;;
21192;SDS011;10754;51.106;7.164;2023-05-03T06:13:19;4.23;;;3.00;;
21192;SDS011;10754;51.106;7.164;2023-05-03T06:15:45;4.17;;;2.77;;
21192;SDS011;10754;51.106;7.164;2023-05-03T06:18:10;7.07;;;3.03;;
21192;SDS011;10754;51.106;7.164;2023-05-03T06:20:36;4.53;;;2.83;;
21192;SDS011;10754;51.106;7.164;2023-05-03T06:23:02;3.42;;;2.30;;
21192;SDS011;10754;51.106;7.164;2023-05-03T06:25:27;3.37;;;2.30;;
21192;SDS011;10754;51.106;7.164;2023-05-03T06:27:53;3.90;;;2.43;;
21192;SDS011;10754;51.106;7.164;2023-05-03T06:30:18;3.67;;;2.17;;
21192;SDS011;10754;51.106;7.164;2023-05-03T06:32:45;2.20;;;2.00;;
21192;SDS011;10754;51.106;7.164;2023-05-03T06:35:11;3.27;;;2.67;;
21192;SDS011;10754;51.106;7.164;2023-05-03T06:37:37;3.55;;;2.20;;
21192;SDS011;10754;51.106;7.164;2023-05-03T06:40:03;4.77;;;2.20;;
21192;SDS011;10754;51.106;7.164;2023-05-03T06:42:30;4.33;;;2.50;;
21192;SDS011;10754;51.106;7.164;2023-05-03T06:44:56;3.37;;;2.00;;
21192;SDS011;10754;51.106;7.164;2023-05-03T06:47:22;2.15;;;1.90;;
21192;SDS011;10754;51.106;7.164;2023-05-03T06:49:47;2.42;;;2.20;;
21192;SDS011;10754;51.106;7.164;2023-05-03T06:52:13;3.22;;;2.13;;
21192;SDS011;10754;51.106;7.164;2023-05-03T06:54:39;3.43;;;2.33;;
21192;SDS011;10754;51.106;7.164;2023-05-03T06:57:04;4.00;;;2.60;;
21192;SDS011;10754;51.106;7.164;2023-05-03T06:59:31;2.57;;;2.30;;
21192;SDS011;10754;51.106;7.164;2023-05-03T07:01:57;2.93;;;2.13;;
21192;SDS011;10754;51.106;7.164;2023-05-03T07:04:22;3.10;;;2.30;;
21192;SDS011;10754;51.106;7.164;2023-05-03T07:06:48;4.20;;;2.40;;
21192;SDS011;10754;51.106;7.164;2023-05-03T07:09:13;2.30;;;2.10;;
21192;SDS011;10754;51.106;7.164;2023-05-03T07:11:39;3.38;;;2.10;;
21192;SDS011;10754;51.106;7.164;2023-05-03T07:14:08;2.57;;;2.00;;
21192;SDS011;10754;51.106;7.164;2023-05-03T07:16:34;3.65;;;2.40;;
21192;SDS011;10754;51.106;7.164;2023-05-03T07:18:59;2.75;;;2.15;;
21192;SDS011;10754;51.106;7.164;2023-05-03T07:21:25;3.50;;;2.42;;
21192;SDS011;10754;51.106;7.164;2023-05-03T07:23:50;4.63;;;2.58;;
21192;SDS011;10754;51.106;7.164;2023-05-03T07:26:16;4.70;;;2.53;;
21192;SDS011;10754;51.106;7.164;2023-05-03T07:28:41;4.55;;;2.47;;
21192;SDS011;10754;51.106;7.164;2023-05-03T07:31:07;3.00;;;2.70;;
21192;SDS011;10754;51.106;7.164;2023-05-03T07:33:33;3.73;;;2.10;;
21192;SDS011;10754;51.106;7.164;2023-05-03T07:36:01;3.73;;;2.63;;
21192;SDS011;10754;51.106;7.164;2023-05-03T07:38:27;4.22;;;2.40;;
21192;SDS011;10754;51.106;7.164;2023-05-03T07:40:52;2.40;;;2.10;;
21192;SDS011;10754;51.106;7.164;2023-05-03T07:43:18;3.40;;;2.50;;
21192;SDS011;10754;51.106;7.164;2023-05-03T07:45:45;4.22;;;2.55;;
21192;SDS011;10754;51.106;7.164;2023-05-03T07:48:10;3.35;;;2.70;;
21192;SDS011;10754;51.106;7.164;2023-05-03T07:50:36;4.35;;;2.60;;
21192;SDS011;10754;51.106;7.164;2023-05-03T07:53:01;2.60;;;2.40;;
21192;SDS011;10754;51.106;7.164;2023-05-03T07:55:27;4.75;;;3.15;;
21192;SDS011;10754;51.106;7.164;2023-05-03T07:57:55;4.28;;;2.22;;
21192;SDS011;10754;51.106;7.164;2023-05-03T08:00:23;4.32;;;2.53;;
21192;SDS011;10754;51.106;7.164;2023-05-03T08:02:49;4.10;;;2.45;;
21192;SDS011;10754;51.106;7.164;2023-05-03T08:05:14;2.97;;;2.33;;
21192;SDS011;10754;51.106;7.164;2023-05-03T08:07:40;3.03;;;2.53;;
21192;SDS011;10754;51.106;7.164;2023-05-03T08:10:06;4.72;;;2.40;;
21192;SDS011;10754;51.106;7.164;2023-05-03T08:12:32;4.38;;;2.20;;
21192;SDS011;10754;51.106;7.164;2023-05-03T08:14:57;3.53;;;2.40;;
21192;SDS011;10754;51.106;7.164;2023-05-03T08:17:23;2.30;;;2.10;;
21192;SDS011;10754;51.106;7.164;2023-05-03T08:19:49;3.00;;;2.45;;
21192;SDS011;10754;51.106;7.164;2023-05-03T08:22:14;3.65;;;2.63;;
21192;SDS011;10754;51.106;7.164;2023-05-03T08:24:41;3.67;;;2.22;;
21192;SDS011;10754;51.106;7.164;2023-05-03T08:27:07;3.35;;;2.00;;
21192;SDS011;10754;51.106;7.164;2023-05-03T08:29:33;2.95;;;2.45;;
21192;SDS011;10754;51.106;7.164;2023-05-03T08:32:01;3.22;;;2.35;;
21192;SDS011;10754;51.106;7.164;2023-05-03T08:34:28;3.80;;;2.47;;
21192;SDS011;10754;51.106;7.164;2023-05-03T08:36:54;3.95;;;2.80;;
21192;SDS011;10754;51.106;7.164;2023-05-03T08:39:20;3.40;;;2.60;;
21192;SDS011;10754;51.106;7.164;2023-05-03T08:41:46;2.87;;;2.33;;
21192;SDS011;10754;51.106;7.164;2023-05-03T08:44:12;3.05;;;2.50;;
21192;SDS011;10754;51.106;7.164;2023-05-03T08:46:45;3.28;;;2.20;;
21192;SDS011;10754;51.106;7.164;2023-05-03T08:49:11;4.38;;;2.35;;
21192;SDS011;10754;51.106;7.164;2023-05-03T08:51:37;3.65;;;2.53;;
21192;SDS011;10754;51.106;7.164;2023-05-03T08:54:05;2.78;;;2.22;;
21192;SDS011;10754;51.106;7.164;2023-05-03T08:56:32;4.63;;;2.67;;
21192;SDS011;10754;51.106;7.164;2023-05-03T08:59:05;3.67;;;2.20;;
21192;SDS011;10754;51.106;7.164;2023-05-03T09:01:37;2.47;;;2.28;;
21192;SDS011;10754;51.106;7.164;2023-05-03T09:04:04;4.57;;;2.53;;
21192;SDS011;10754;51.106;7.164;2023-05-03T09:06:30;2.78;;;2.30;;
21192;SDS011;10754;51.106;7.164;2023-05-03T09:08:57;3.17;;;2.45;;
21192;SDS011;10754;51.106;7.164;2023-05-03T09:11:26;3.03;;;2.20;;
21192;SDS011;10754;51.106;7.164;2023-05-03T09:14:08;2.85;;;2.50;;
21192;SDS011;10754;51.106;7.164;2023-05-03T09:16:41;3.10;;;2.30;;
21192;SDS011;10754;51.106;7.164;2023-05-03T09:19:08;3.55;;;2.67;;
21192;SDS011;10754;51.106;7.164;2023-05-03T09:21:35;5.28;;;2.30;;
21192;SDS011;10754;51.106;7.164;2023-05-03T09:24:02;3.17;;;2.28;;
21192;SDS011;10754;51.106;7.164;2023-05-03T09:26:40;2.42;;;1.80;;
21192;SDS011;10754;51.106;7.164;2023-05-03T09:29:07;2.10;;;1.98;;
21192;SDS011;10754;51.106;7.164;2023-05-03T09:31:34;2.97;;;2.10;;
21192;SDS011;10754;51.106;7.164;2023-05-03T09:34:00;2.80;;;2.22;;
21192;SDS011;10754;51.106;7.164;2023-05-03T09:36:26;2.78;;;2.15;;
21192;SDS011;10754;51.106;7.164;2023-05-03T09:38:52;3.67;;;2.65;;
21192;SDS011;10754;51.106;7.164;2023-05-03T09:41:28;2.25;;;2.05;;
21192;SDS011;10754;51.106;7.164;2023-05-03T09:43:55;2.88;;;2.25;;
21192;SDS011;10754;51.106;7.164;2023-05-03T09:46:26;4.65;;;2.35;;
21192;SDS011;10754;51.106;7.164;2023-05-03T09:48:54;2.25;;;1.85;;
21192;SDS011;10754;51.106;7.164;2023-05-03T09:51:21;2.10;;;1.90;;
21192;SDS011;10754;51.106;7.164;2023-05-03T09:53:47;2.25;;;1.85;;
21192;SDS011;10754;51.106;7.164;2023-05-03T09:56:14;2.65;;;1.88;;
21192;SDS011;10754;51.106;7.164;2023-05-03T09:58:40;2.10;;;1.70;;
21192;SDS011;10754;51.106;7.164;2023-05-03T10:01:07;10.18;;;3.47;;
21192;SDS011;10754;51.106;7.164;2023-05-03T10:06:10;2.92;;;1.98;;
21192;SDS011;10754;51.106;7.164;2023-05-03T10:08:51;2.75;;;2.00;;
21192;SDS011;10754;51.106;7.164;2023-05-03T10:11:18;3.15;;;2.10;;
21192;SDS011;10754;51.106;7.164;2023-05-03T10:13:45;2.22;;;1.90;;
21192;SDS011;10754;51.106;7.164;2023-05-03T10:16:12;5.10;;;2.40;;
21192;SDS011;10754;51.106;7.164;2023-05-03T10:18:49;3.97;;;2.10;;
21192;SDS011;10754;51.106;7.164;2023-05-03T10:21:23;2.75;;;2.13;;
21192;SDS011;10754;51.106;7.164;2023-05-03T10:24:08;2.33;;;1.75;;
21192;SDS011;10754;51.106;7.164;2023-05-03T10:26:34;3.08;;;2.25;;
21192;SDS011;10754;51.106;7.164;2023-05-03T10:28:59;5.07;;;2.20;;
21192;SDS011;10754;51.106;7.164;2023-05-03T10:31:43;3.95;;;1.98;;
21192;SDS011;10754;51.106;7.164;2023-05-03T10:34:23;3.08;;;1.90;;
21192;SDS011;10754;51.106;7.164;2023-05-03T10:36:54;7.30;;;2.53;;
21192;SDS011;10754;51.106;7.164;2023-05-03T10:39:20;2.58;;;1.98;;
21192;SDS011;10754;51.106;7.164;2023-05-03T10:42:01;2.55;;;1.70;;
21192;SDS011;10754;51.106;7.164;2023-05-03T10:47:16;2.10;;;1.58;;
21192;SDS011;10754;51.106;7.164;2023-05-03T10:49:43;2.63;;;1.63;;
21192;SDS011;10754;51.106;7.164;2023-05-03T10:54:59;2.70;;;1.70;;
21192;SDS011;10754;51.106;7.164;2023-05-03T10:57:45;2.50;;;1.42;;
21192;SDS011;10754;51.106;7.164;2023-05-03T11:05:35;2.90;;;1.77;;
21192;SDS011;10754;51.106;7.164;2023-05-03T11:10:37;3.05;;;2.05;;
21192;SDS011;10754;51.106;7.164;2023-05-03T11:13:03;1.52;;;1.42;;
21192;SDS011;10754;51.106;7.164;2023-05-03T11:15:28;3.22;;;1.67;;
21192;SDS011;10754;51.106;7.164;2023-05-03T11:17:55;1.98;;;1.65;;
21192;SDS011;10754;51.106;7.164;2023-05-03T11:20:20;3.30;;;1.70;;
21192;SDS011;10754;51.106;7.164;2023-05-03T11:22:46;3.10;;;1.73;;
21192;SDS011;10754;51.106;7.164;2023-05-03T11:25:12;1.88;;;1.48;;
21192;SDS011;10754;51.106;7.164;2023-05-03T11:27:42;2.45;;;1.58;;
21192;SDS011;10754;51.106;7.164;2023-05-03T11:30:07;2.55;;;1.50;;
21192;SDS011;10754;51.106;7.164;2023-05-03T11:32:34;2.38;;;1.50;;
21192;SDS011;10754;51.106;7.164;2023-05-03T11:35:02;2.70;;;1.40;;
21192;SDS011;10754;51.106;7.164;2023-05-03T11:37:31;2.75;;;1.35;;
21192;SDS011;10754;51.106;7.164;2023-05-03T11:39:57;2.55;;;1.65;;
21192;SDS011;10754;51.106;7.164;2023-05-03T11:42:23;2.75;;;1.25;;
21192;SDS011;10754;51.106;7.164;2023-05-03T11:44:50;2.30;;;1.55;;
21192;SDS011;10754;51.106;7.164;2023-05-03T11:47:16;2.58;;;1.38;;
21192;SDS011;10754;51.106;7.164;2023-05-03T11:49:51;2.50;;;1.35;;
21192;SDS011;10754;51.106;7.164;2023-05-03T11:52:24;3.03;;;1.52;;
21192;SDS011;10754;51.106;7.164;2023-05-03T11:54:51;2.40;;;1.17;;
21192;SDS011;10754;51.106;7.164;2023-05-03T11:57:17;1.95;;;1.38;;
21192;SDS011;10754;51.106;7.164;2023-05-03T11:59:43;3.67;;;1.70;;
21192;SDS011;10754;51.106;7.164;2023-05-03T12:02:12;2.05;;;1.45;;
21192;SDS011;10754;51.106;7.164;2023-05-03T12:04:39;2.17;;;1.38;;
21192;SDS011;10754;51.106;7.164;2023-05-03T12:07:06;2.25;;;1.20;;
21192;SDS011;10754;51.106;7.164;2023-05-03T12:09:33;1.85;;;1.20;;
21192;SDS011;10754;51.106;7.164;2023-05-03T12:11:59;2.70;;;1.20;;
21192;SDS011;10754;51.106;7.164;2023-05-03T12:14:26;3.47;;;1.50;;
21192;SDS011;10754;51.106;7.164;2023-05-03T12:16:52;2.42;;;1.50;;
21192;SDS011;10754;51.106;7.164;2023-05-03T12:19:28;2.22;;;1.80;;
21192;SDS011;10754;51.106;7.164;2023-05-03T12:21:54;1.98;;;1.73;;
21192;SDS011;10754;51.106;7.164;2023-05-03T12:24:20;2.50;;;1.33;;
21192;SDS011;10754;51.106;7.164;2023-05-03T12:26:47;3.33;;;1.40;;
21192;SDS011;10754;51.106;7.164;2023-05-03T12:29:14;2.13;;;1.40;;
21192;SDS011;10754;51.106;7.164;2023-05-03T12:31:40;2.63;;;1.50;;
21192;SDS011;10754;51.106;7.164;2023-05-03T12:34:06;2.30;;;1.42;;
21192;SDS011;10754;51.106;7.164;2023-05-03T12:36:31;2.50;;;1.58;;
21192;SDS011;10754;51.106;7.164;2023-05-03T12:38:57;1.98;;;1.65;;
21192;SDS011;10754;51.106;7.164;2023-05-03T12:41:23;3.47;;;1.52;;
21192;SDS011;10754;51.106;7.164;2023-05-03T12:43:51;2.05;;;1.20;;
21192;SDS011;10754;51.106;7.164;2023-05-03T12:46:17;3.08;;;2.00;;
21192;SDS011;10754;51.106;7.164;2023-05-03T12:48:43;3.58;;;1.73;;
21192;SDS011;10754;51.106;7.164;2023-05-03T12:51:09;2.70;;;1.52;;
21192;SDS011;10754;51.106;7.164;2023-05-03T12:53:34;2.22;;;1.33;;
21192;SDS011;10754;51.106;7.164;2023-05-03T12:56:00;2.50;;;1.27;;
21192;SDS011;10754;51.106;7.164;2023-05-03T12:58:25;2.72;;;1.08;;
21192;SDS011;10754;51.106;7.164;2023-05-03T13:00:51;2.78;;;1.20;;
21192;SDS011;10754;51.106;7.164;2023-05-03T13:03:17;1.83;;;1.30;;
21192;SDS011;10754;51.106;7.164;2023-05-03T13:05:43;2.38;;;1.40;;
21192;SDS011;10754;51.106;7.164;2023-05-03T13:08:08;4.30;;;1.45;;
21192;SDS011;10754;51.106;7.164;2023-05-03T13:10:35;2.17;;;1.40;;
21192;SDS011;10754;51.106;7.164;2023-05-03T13:13:01;2.15;;;1.10;;
21192;SDS011;10754;51.106;7.164;2023-05-03T13:15:27;2.90;;;1.55;;
21192;SDS011;10754;51.106;7.164;2023-05-03T13:17:53;2.28;;;1.30;;
21192;SDS011;10754;51.106;7.164;2023-05-03T13:20:19;2.60;;;1.30;;
21192;SDS011;10754;51.106;7.164;2023-05-03T13:22:46;2.38;;;1.15;;
21192;SDS011;10754;51.106;7.164;2023-05-03T13:25:12;1.60;;;1.10;;
21192;SDS011;10754;51.106;7.164;2023-05-03T13:27:37;2.83;;;1.38;;
21192;SDS011;10754;51.106;7.164;2023-05-03T13:30:03;2.47;;;1.00;;
21192;SDS011;10754;51.106;7.164;2023-05-03T13:32:29;4.32;;;1.50;;
21192;SDS011;10754;51.106;7.164;2023-05-03T13:34:55;4.43;;;2.03;;
21192;SDS011;10754;51.106;7.164;2023-05-03T13:37:20;3.63;;;2.03;;
21192;SDS011;10754;51.106;7.164;2023-05-03T13:39:47;1.52;;;1.30;;
21192;SDS011;10754;51.106;7.164;2023-05-03T13:42:12;1.58;;;1.23;;
21192;SDS011;10754;51.106;7.164;2023-05-03T13:44:38;2.15;;;1.08;;
21192;SDS011;10754;51.106;7.164;2023-05-03T13:47:04;1.42;;;1.10;;
21192;SDS011;10754;51.106;7.164;2023-05-03T13:49:30;2.35;;;1.60;;
21192;SDS011;10754;51.106;7.164;2023-05-03T13:51:55;1.17;;;1.05;;
21192;SDS011;10754;51.106;7.164;2023-05-03T13:54:21;1.90;;;1.30;;
21192;SDS011;10754;51.106;7.164;2023-05-03T13:56:46;2.20;;;1.33;;
21192;SDS011;10754;51.106;7.164;2023-05-03T13:59:12;2.05;;;1.05;;
21192;SDS011;10754;51.106;7.164;2023-05-03T14:01:38;2.67;;;1.00;;
21192;SDS011;10754;51.106;7.164;2023-05-03T14:04:03;5.25;;;1.58;;
21192;SDS011;10754;51.106;7.164;2023-05-03T14:06:29;2.08;;;1.17;;
21192;SDS011;10754;51.106;7.164;2023-05-03T14:08:55;4.90;;;2.05;;
21192;SDS011;10754;51.106;7.164;2023-05-03T14:11:22;13.52;;;2.88;;
21192;SDS011;10754;51.106;7.164;2023-05-03T14:13:49;2.63;;;1.20;;
21192;SDS011;10754;51.106;7.164;2023-05-03T14:16:16;2.72;;;1.25;;
21192;SDS011;10754;51.106;7.164;2023-05-03T14:18:42;1.85;;;1.20;;
21192;SDS011;10754;51.106;7.164;2023-05-03T14:21:08;1.48;;;1.10;;
21192;SDS011;10754;51.106;7.164;2023-05-03T14:23:34;1.90;;;1.25;;
21192;SDS011;10754;51.106;7.164;2023-05-03T14:26:00;2.25;;;0.90;;
21192;SDS011;10754;51.106;7.164;2023-05-03T14:28:26;3.53;;;1.10;;
21192;SDS011;10754;51.106;7.164;2023-05-03T14:30:51;2.28;;;0.75;;
21192;SDS011;10754;51.106;7.164;2023-05-03T14:33:17;1.20;;;1.08;;
21192;SDS011;10754;51.106;7.164;2023-05-03T14:35:42;2.50;;;1.48;;
21192;SDS011;10754;51.106;7.164;2023-05-03T14:38:08;3.25;;;1.23;;
21192;SDS011;10754;51.106;7.164;2023-05-03T14:40:34;4.07;;;1.13;;
21192;SDS011;10754;51.106;7.164;2023-05-03T14:42:59;1.73;;;1.05;;
21192;SDS011;10754;51.106;7.164;2023-05-03T14:45:25;2.25;;;0.90;;
21192;SDS011;10754;51.106;7.164;2023-05-03T14:47:50;1.60;;;0.88;;
21192;SDS011;10754;51.106;7.164;2023-05-03T14:50:16;1.75;;;0.90;;
21192;SDS011;10754;51.106;7.164;2023-05-03T14:52:41;2.50;;;1.13;;
21192;SDS011;10754;51.106;7.164;2023-05-03T14:55:07;2.78;;;1.60;;
21192;SDS011;10754;51.106;7.164;2023-05-03T14:57:33;1.70;;;0.70;;
21192;SDS011;10754;51.106;7.164;2023-05-03T15:00:00;2.35;;;0.90;;
21192;SDS011;10754;51.106;7.164;2023-05-03T15:02:26;1.50;;;0.77;;
21192;SDS011;10754;51.106;7.164;2023-05-03T15:04:52;1.83;;;0.90;;
21192;SDS011;10754;51.106;7.164;2023-05-03T15:07:18;1.58;;;0.90;;